Time;durP1;ratioP1;P1;durP2;ratioP2;P2;SDS_P1;SDS_P2;PMS_P1;PMS_P2;Temp;Humidity;BMP_temperature;BMP_pressure;BME280_temperature;BME280_humidity;BME280_pressure;Samples;Min_cycle;Max_cycle;Signal;HPM_P1;HPM_P2
2022/12/08 00:01:10;;;;;;;2.42;1.25;;;3.30;99.90;;;;;;5051538;28;20755;-77
2022/12/08 00:03:37;;;;;;;3.38;1.63;;;3.80;99.90;;;;;;5043780;28;20052;-77
2022/12/08 00:11:32;;;;;;;3.00;1.33;;;3.30;99.90;;;;;;5045322;28;20873;-76
2022/12/08 00:13:59;;;;;;;4.57;1.70;;;3.40;99.90;;;;;;5049133;28;20040;-77
2022/12/08 00:16:24;;;;;;;2.13;1.35;;;4.10;99.90;;;;;;5047062;28;20049;-76
2022/12/08 00:18:50;;;;;;;2.78;1.40;;;3.50;99.90;;;;;;5049904;28;20558;-76
2022/12/08 00:21:15;;;;;;;4.13;1.60;;;3.50;99.90;;;;;;5051295;28;20126;-78
2022/12/08 00:23:41;;;;;;;4.00;1.42;;;3.50;99.90;;;;;;5036699;28;20036;-77
2022/12/08 00:26:07;;;;;;;1.33;1.23;;;4.00;99.90;;;;;;5040801;28;20126;-77
2022/12/08 00:28:33;;;;;;;2.78;1.38;;;4.00;99.90;;;;;;5039700;28;20126;-78
2022/12/08 00:30:59;;;;;;;2.92;1.55;;;3.70;99.90;;;;;;5044068;28;20053;-77
2022/12/08 00:33:27;;;;;;;5.70;2.00;;;4.70;99.90;;;;;;5045768;28;20107;-78
2022/12/08 00:35:53;;;;;;;4.00;2.30;;;4.20;99.90;;;;;;5040348;28;20085;-77
2022/12/08 00:38:19;;;;;;;5.07;2.08;;;3.80;99.90;;;;;;5043720;28;20048;-78
2022/12/08 00:40:46;;;;;;;3.88;2.00;;;4.10;99.90;;;;;;5043534;28;20063;-76
2022/12/08 00:43:12;;;;;;;5.15;2.40;;;3.80;99.90;;;;;;5044263;28;20044;-75
2022/12/08 00:45:38;;;;;;;6.40;2.78;;;4.00;99.90;;;;;;5044914;28;20332;-76
2022/12/08 00:48:04;;;;;;;5.25;2.40;;;3.90;99.90;;;;;;5050239;28;20060;-72
2022/12/08 00:50:29;;;;;;;5.60;2.13;;;3.90;99.90;;;;;;5046537;28;20510;-74
2022/12/08 00:52:55;;;;;;;3.55;1.65;;;4.10;99.90;;;;;;5036898;28;20041;-75
2022/12/08 00:55:21;;;;;;;3.25;1.83;;;3.80;99.90;;;;;;5047264;28;20167;-76
2022/12/08 00:57:46;;;;;;;3.83;1.75;;;4.40;99.90;;;;;;5053742;28;20040;-76
2022/12/08 01:00:12;;;;;;;3.00;1.60;;;4.20;99.90;;;;;;5049198;28;20047;-76
2022/12/08 01:02:38;;;;;;;2.30;1.42;;;3.70;99.90;;;;;;5041827;28;20053;-77
2022/12/08 01:05:04;;;;;;;2.05;1.52;;;3.70;99.90;;;;;;5041272;28;20055;-77
2022/12/08 01:07:30;;;;;;;2.40;1.58;;;3.70;99.90;;;;;;5039131;28;20049;-77
2022/12/08 01:09:56;;;;;;;4.25;1.40;;;3.60;99.90;;;;;;5042632;28;20183;-78
2022/12/08 01:12:22;;;;;;;2.45;1.50;;;3.70;99.90;;;;;;5046889;28;20049;-77
2022/12/08 01:14:48;;;;;;;4.78;1.40;;;4.70;99.90;;;;;;5048138;28;20059;-78
2022/12/08 01:17:14;;;;;;;3.47;1.40;;;3.60;99.90;;;;;;5047793;28;20119;-78
2022/12/08 01:19:39;;;;;;;1.67;1.50;;;3.60;99.90;;;;;;5044211;28;20049;-77
2022/12/08 01:22:05;;;;;;;2.10;1.27;;;3.60;99.90;;;;;;5049461;28;20036;-78
2022/12/08 01:24:31;;;;;;;3.75;1.20;;;3.60;99.90;;;;;;5051668;28;20044;-78
2022/12/08 01:26:56;;;;;;;4.00;1.85;;;4.60;99.90;;;;;;5054297;28;20126;-76
2022/12/08 01:29:22;;;;;;;2.67;1.90;;;3.60;99.90;;;;;;5040371;28;20069;-77
2022/12/08 01:31:48;;;;;;;1.25;0.88;;;3.70;99.90;;;;;;5045905;28;20068;-78
2022/12/08 01:34:13;;;;;;;5.57;1.13;;;3.70;99.90;;;;;;5044085;28;20061;-78
2022/12/08 01:36:39;;;;;;;3.20;1.00;;;3.70;99.90;;;;;;5042431;28;20186;-79
2022/12/08 01:39:14;;;;;;;2.47;1.27;;;4.10;99.90;;;;;;5075746;28;20124;-78
2022/12/08 01:41:42;;;;;;;1.85;0.82;;;3.70;99.90;;;;;;5046662;28;20045;-78
2022/12/08 01:44:09;;;;;;;1.95;1.10;;;3.80;99.90;;;;;;5051976;28;20055;-78
2022/12/08 01:46:39;;;;;;;1.58;0.93;;;3.80;99.90;;;;;;5047108;28;20056;-78
2022/12/08 01:49:26;;;;;;;0.80;0.80;;;3.60;99.90;;;;;;5051135;28;20155;-79
2022/12/08 01:52:21;;;;;;;1.55;1.00;;;4.00;99.90;;;;;;5078968;28;20440;-79
2022/12/08 01:55:00;;;;;;;1.05;0.80;;;3.50;99.90;;;;;;5072668;28;20483;-79
2022/12/08 01:57:32;;;;;;;1.98;0.90;;;3.50;99.90;;;;;;5051151;28;20077;-78
2022/12/08 02:00:13;;;;;;;0.95;0.80;;;3.50;99.90;;;;;;5047075;28;20077;-79
2022/12/08 02:02:48;;;;;;;1.23;0.75;;;3.50;99.90;;;;;;5044877;28;20091;-79
2022/12/08 02:05:15;;;;;;;1.42;0.50;;;3.40;99.90;;;;;;5047093;28;20442;-79
2022/12/08 02:07:42;;;;;;;0.73;0.60;;;3.50;99.90;;;;;;5049698;28;20053;-79
2022/12/08 02:10:09;;;;;;;0.60;0.60;;;3.40;99.90;;;;;;5049401;28;20235;-78
2022/12/08 02:12:35;;;;;;;1.35;0.82;;;3.40;99.90;;;;;;5052932;28;20044;-79
2022/12/08 02:15:01;;;;;;;0.73;0.73;;;4.00;99.90;;;;;;5049612;28;20054;-79
2022/12/08 02:17:26;;;;;;;0.63;0.63;;;3.30;99.90;;;;;;5061916;28;20087;-79
2022/12/08 02:20:07;;;;;;;2.53;0.98;;;3.40;99.90;;;;;;5054505;28;20045;-77
2022/12/08 02:23:00;;;;;;;0.70;0.70;;;3.80;99.90;;;;;;5045424;28;20047;-79
2022/12/08 02:25:44;;;;;;;4.20;1.05;;;3.40;99.90;;;;;;5040909;28;20123;-79
2022/12/08 02:28:35;;;;;;;1.30;0.90;;;3.40;99.90;;;;;;5048169;28;20595;-79
2022/12/08 02:31:12;;;;;;;1.95;0.93;;;3.40;99.90;;;;;;5053266;28;20127;-78
2022/12/08 02:33:41;;;;;;;2.25;0.95;;;3.40;99.90;;;;;;5045833;28;20062;-79
2022/12/08 02:36:24;;;;;;;2.97;1.30;;;3.40;99.90;;;;;;5045733;28;20062;-78
2022/12/08 02:39:01;;;;;;;1.48;0.70;;;3.40;99.90;;;;;;5055788;28;20118;-77
2022/12/08 02:41:55;;;;;;;2.75;1.27;;;3.50;99.90;;;;;;5048086;28;20058;-78
2022/12/08 02:44:30;;;;;;;;;;;3.40;99.90;;;;;;5045239;28;20087;-77
2022/12/08 02:47:11;;;;;;;2.80;1.08;;;3.40;99.90;;;;;;5049341;28;19971;-78
2022/12/08 02:49:37;;;;;;;1.00;0.90;;;3.50;99.90;;;;;;5039067;28;20131;-77
2022/12/08 02:52:10;;;;;;;1.08;0.90;;;3.60;99.90;;;;;;5039922;28;21049;-78
2022/12/08 02:54:40;;;;;;;1.35;0.70;;;3.60;99.90;;;;;;5052703;28;20048;-78
2022/12/08 02:57:12;;;;;;;0.85;0.75;;;3.70;99.90;;;;;;5048238;28;20630;-78
2022/12/08 02:59:51;;;;;;;1.08;1.00;;;4.10;99.90;;;;;;5049083;28;20053;-78
2022/12/08 03:02:33;;;;;;;1.00;0.90;;;3.70;99.90;;;;;;5047368;28;20697;-79
2022/12/08 03:05:21;;;;;;;0.85;0.73;;;3.70;99.90;;;;;;5041914;28;20159;-77
2022/12/08 03:08:11;;;;;;;3.38;0.70;;;3.70;99.90;;;;;;5041854;28;20053;-76
2022/12/08 03:10:45;;;;;;;0.60;0.60;;;3.80;99.90;;;;;;5049315;28;20051;-76
2022/12/08 03:13:29;;;;;;;0.52;0.52;;;3.70;99.90;;;;;;5045328;28;20064;-77
2022/12/08 03:15:55;;;;;;;1.63;0.77;;;3.70;99.90;;;;;;5051479;28;20152;-77
2022/12/08 03:18:27;;;;;;;1.25;0.70;;;3.70;99.90;;;;;;5037907;28;20757;-76
2022/12/08 03:20:53;;;;;;;2.00;0.82;;;3.70;99.90;;;;;;5040448;28;20123;-76
2022/12/08 03:23:20;;;;;;;0.85;0.60;;;3.60;99.90;;;;;;5042682;28;20242;-78
2022/12/08 03:25:57;;;;;;;1.20;0.88;;;3.70;99.90;;;;;;5046192;28;20140;-77
2022/12/08 03:28:23;;;;;;;1.55;0.80;;;3.60;99.90;;;;;;5054954;28;20048;-78
2022/12/08 03:30:54;;;;;;;0.65;0.65;;;4.80;99.90;;;;;;5045392;28;20064;-78
2022/12/08 03:33:27;;;;;;;1.00;0.77;;;3.60;99.90;;;;;;5046779;28;20061;-76
2022/12/08 03:35:54;;;;;;;1.25;0.65;;;3.60;99.90;;;;;;5049291;28;20152;-77
2022/12/08 03:38:21;;;;;;;1.38;0.75;;;4.30;99.90;;;;;;5053279;28;20053;-76
2022/12/08 03:41:17;;;;;;;3.20;0.80;;;3.60;99.90;;;;;;5045031;28;20044;-77
2022/12/08 03:43:35;;;;;;;1.23;0.70;;;3.60;99.90;;;;;;5050636;28;20699;-77
2022/12/08 03:46:01;;;;;;;2.15;0.80;;;3.80;99.90;;;;;;5046463;28;20044;-78
2022/12/08 03:48:26;;;;;;;2.28;0.90;;;4.00;99.90;;;;;;5050823;28;20044;-77
2022/12/08 03:50:52;;;;;;;2.67;0.90;;;3.60;99.90;;;;;;5047020;28;20103;-78
2022/12/08 03:53:18;;;;;;;0.82;0.73;;;3.70;99.90;;;;;;5040182;28;20099;-77
2022/12/08 03:55:43;;;;;;;0.65;0.52;;;3.50;99.90;;;;;;5039797;28;20106;-77
2022/12/08 03:58:09;;;;;;;1.20;0.82;;;4.80;99.90;;;;;;5044976;28;20501;-78
2022/12/08 04:00:34;;;;;;;0.65;0.65;;;3.50;99.90;;;;;;5048431;28;20059;-77
2022/12/08 04:03:00;;;;;;;1.33;0.93;;;3.60;99.90;;;;;;5043832;28;20066;-77
2022/12/08 04:05:26;;;;;;;0.60;0.57;;;3.50;99.90;;;;;;5037112;28;20102;-77
2022/12/08 04:07:56;;;;;;;0.57;0.57;;;4.10;99.90;;;;;;5050607;28;20083;-77
2022/12/08 04:10:21;;;;;;;0.77;0.50;;;3.50;99.90;;;;;;5043336;28;20052;-78
2022/12/08 04:12:47;;;;;;;2.75;0.80;;;3.50;99.90;;;;;;5050148;28;20109;-77
2022/12/08 04:15:13;;;;;;;0.50;0.50;;;3.40;99.90;;;;;;5046271;28;20102;-78
2022/12/08 04:17:38;;;;;;;0.68;0.57;;;3.50;99.90;;;;;;5054234;28;20048;-79
2022/12/08 04:20:05;;;;;;;1.02;0.52;;;3.40;99.90;;;;;;5050492;28;20122;-78
2022/12/08 04:22:30;;;;;;;1.20;0.50;;;3.30;99.90;;;;;;5042767;28;20049;-77
2022/12/08 04:24:56;;;;;;;1.67;0.50;;;3.50;99.90;;;;;;5050803;28;20127;-78
2022/12/08 04:27:22;;;;;;;0.90;0.50;;;3.30;99.90;;;;;;5043656;28;20130;-78
2022/12/08 04:29:47;;;;;;;0.88;0.50;;;3.60;99.90;;;;;;5045916;28;20048;-78
2022/12/08 04:32:13;;;;;;;1.83;0.85;;;4.50;99.90;;;;;;5042325;28;20072;-77
2022/12/08 04:34:39;;;;;;;2.70;0.52;;;3.30;99.90;;;;;;5050530;28;20059;-77
2022/12/08 04:37:04;;;;;;;0.63;0.43;;;4.00;99.90;;;;;;5039097;28;20053;-77
2022/12/08 04:39:30;;;;;;;1.13;0.60;;;4.10;99.90;;;;;;5051434;28;20040;-77
2022/12/08 04:41:56;;;;;;;0.95;0.73;;;3.90;99.90;;;;;;5041382;28;20044;-77
2022/12/08 04:44:21;;;;;;;2.63;0.55;;;3.40;99.90;;;;;;5044974;28;20062;-77
2022/12/08 04:46:47;;;;;;;1.75;0.60;;;3.30;99.90;;;;;;5044809;28;20092;-77
2022/12/08 04:49:12;;;;;;;0.70;0.45;;;4.00;99.90;;;;;;5041955;28;20047;-77
2022/12/08 04:51:38;;;;;;;1.20;0.57;;;3.40;99.90;;;;;;5054037;28;20829;-78
2022/12/08 04:54:04;;;;;;;1.50;0.63;;;3.30;99.90;;;;;;5057973;28;20877;-77
2022/12/08 04:56:30;;;;;;;3.63;0.77;;;3.40;99.90;;;;;;5048609;28;20056;-77
2022/12/08 04:58:55;;;;;;;0.73;0.63;;;3.30;99.90;;;;;;5044934;28;20056;-77
2022/12/08 05:01:21;;;;;;;0.50;0.50;;;3.40;99.90;;;;;;5053379;28;20622;-78
2022/12/08 05:03:47;;;;;;;0.57;0.57;;;3.50;99.90;;;;;;5053871;28;21162;-78
2022/12/08 05:06:13;;;;;;;1.10;0.70;;;4.30;99.90;;;;;;5046117;28;20052;-77
2022/12/08 05:08:40;;;;;;;1.33;0.70;;;3.50;99.90;;;;;;5048537;28;20040;-78
2022/12/08 05:11:08;;;;;;;0.43;0.43;;;4.20;99.90;;;;;;5051124;28;20072;-77
2022/12/08 05:13:34;;;;;;;2.67;0.60;;;3.50;99.90;;;;;;5054293;28;20074;-78
2022/12/08 05:16:07;;;;;;;0.68;0.57;;;4.40;99.90;;;;;;5053999;28;20051;-78
2022/12/08 05:18:34;;;;;;;1.25;0.40;;;3.50;99.90;;;;;;5045910;28;20107;-77
2022/12/08 05:21:00;;;;;;;1.45;0.60;;;3.60;99.90;;;;;;5051383;28;20052;-77
2022/12/08 05:23:26;;;;;;;0.45;0.45;;;3.40;99.90;;;;;;5054666;28;20051;-77
2022/12/08 05:25:52;;;;;;;1.75;0.63;;;3.40;99.90;;;;;;5048788;28;20044;-77
2022/12/08 05:28:17;;;;;;;0.98;0.63;;;3.40;99.90;;;;;;5048181;28;20061;-77
2022/12/08 05:30:43;;;;;;;1.58;0.50;;;4.30;99.90;;;;;;5048815;28;20060;-77
2022/12/08 05:33:10;;;;;;;1.00;0.90;;;3.40;99.90;;;;;;5042621;28;20569;-77
2022/12/08 05:35:36;;;;;;;2.95;0.90;;;4.50;99.90;;;;;;5041488;28;20102;-77
2022/12/08 05:38:02;;;;;;;1.35;0.60;;;4.00;99.90;;;;;;5041877;28;20048;-76
2022/12/08 05:40:27;;;;;;;1.60;0.35;;;4.00;99.90;;;;;;5041722;28;20079;-78
2022/12/08 05:42:53;;;;;;;1.60;0.60;;;4.00;99.90;;;;;;5042522;28;20124;-77
2022/12/08 05:45:19;;;;;;;2.30;0.63;;;4.40;99.90;;;;;;5049554;28;20095;-78
2022/12/08 05:47:45;;;;;;;0.90;0.50;;;3.50;99.90;;;;;;5039208;28;20044;-77
2022/12/08 05:50:10;;;;;;;0.77;0.63;;;3.60;99.90;;;;;;5040952;28;20049;-77
2022/12/08 05:52:36;;;;;;;0.50;0.50;;;3.50;99.90;;;;;;5039835;28;20469;-77
2022/12/08 05:55:02;;;;;;;0.63;0.60;;;3.80;99.90;;;;;;5041439;28;20137;-77
2022/12/08 05:57:28;;;;;;;2.80;0.60;;;3.50;99.90;;;;;;5043192;28;20651;-76
2022/12/08 05:59:53;;;;;;;1.48;0.73;;;3.40;99.90;;;;;;5049754;28;20044;-78
2022/12/08 06:02:19;;;;;;;1.83;0.85;;;3.40;99.90;;;;;;5046643;28;20409;-78
2022/12/08 06:04:44;;;;;;;2.10;0.75;;;3.40;99.90;;;;;;5051060;28;20062;-78
2022/12/08 06:07:10;;;;;;;2.97;0.50;;;3.40;99.90;;;;;;5038784;28;20079;-78
2022/12/08 06:09:36;;;;;;;0.65;0.57;;;3.90;99.90;;;;;;5051533;28;20052;-78
2022/12/08 06:12:02;;;;;;;0.45;0.45;;;3.30;99.90;;;;;;5048825;28;20045;-78
2022/12/08 06:14:27;;;;;;;3.30;0.63;;;3.40;99.90;;;;;;5047198;28;20473;-78
2022/12/08 06:16:53;;;;;;;0.55;0.50;;;3.40;99.90;;;;;;5045914;28;20159;-78
2022/12/08 06:19:19;;;;;;;0.77;0.70;;;3.30;99.90;;;;;;5048204;28;20056;-79
2022/12/08 06:21:44;;;;;;;1.17;0.45;;;3.40;99.90;;;;;;5038205;28;20597;-78
2022/12/08 06:24:11;;;;;;;1.15;0.63;;;3.50;99.90;;;;;;5044770;28;20770;-78
2022/12/08 06:26:36;;;;;;;1.27;0.77;;;4.20;99.90;;;;;;5047516;28;20051;-78
2022/12/08 06:29:03;;;;;;;0.85;0.70;;;3.40;99.90;;;;;;5043237;28;20041;-77
2022/12/08 06:31:29;;;;;;;1.75;0.60;;;3.40;99.90;;;;;;5043245;28;20177;-78
2022/12/08 06:33:55;;;;;;;2.35;0.70;;;3.40;99.90;;;;;;5045235;28;20084;-78
2022/12/08 06:36:23;;;;;;;2.83;0.77;;;3.80;99.90;;;;;;5045062;28;20156;-77
2022/12/08 06:38:49;;;;;;;1.02;0.70;;;3.40;99.90;;;;;;5048834;28;20059;-77
2022/12/08 06:41:16;;;;;;;0.85;0.75;;;3.40;99.90;;;;;;5045872;28;20051;-78
2022/12/08 06:43:42;;;;;;;1.77;0.88;;;3.70;99.90;;;;;;5043697;28;20420;-78
2022/12/08 06:46:10;;;;;;;0.98;0.77;;;3.40;99.90;;;;;;5044058;28;20052;-78
2022/12/08 06:48:36;;;;;;;0.80;0.38;;;3.50;99.90;;;;;;5047575;28;20041;-78
2022/12/08 06:51:10;;;;;;;0.95;0.88;;;3.80;99.90;;;;;;5043312;28;20563;-77
2022/12/08 06:53:36;;;;;;;0.68;0.60;;;3.90;99.90;;;;;;5042436;28;20045;-78
2022/12/08 06:56:02;;;;;;;0.88;0.65;;;3.30;99.90;;;;;;5044781;28;20055;-77
2022/12/08 06:58:28;;;;;;;2.22;0.60;;;3.30;99.90;;;;;;5040947;28;20052;-77
2022/12/08 07:00:54;;;;;;;0.45;0.45;;;3.80;99.90;;;;;;5071541;28;20051;-78
2022/12/08 07:03:20;;;;;;;0.57;0.57;;;3.30;99.90;;;;;;5075302;28;20049;-78
2022/12/08 07:05:45;;;;;;;0.98;0.70;;;4.30;99.90;;;;;;5047250;28;20076;-77
2022/12/08 07:08:11;;;;;;;0.70;0.70;;;3.20;99.90;;;;;;5040716;28;20123;-78
2022/12/08 07:10:37;;;;;;;0.63;0.63;;;3.20;99.90;;;;;;5046295;28;20055;-77
2022/12/08 07:13:03;;;;;;;1.25;0.90;;;3.10;99.90;;;;;;5049805;28;20048;-78
2022/12/08 07:15:28;;;;;;;1.08;0.65;;;3.10;99.90;;;;;;5048406;28;20106;-78
2022/12/08 07:17:54;;;;;;;0.93;0.80;;;3.40;99.90;;;;;;5040001;28;20888;-78
2022/12/08 07:20:20;;;;;;;0.70;0.60;;;3.40;99.90;;;;;;5044537;28;20053;-78
2022/12/08 07:22:50;;;;;;;2.80;0.90;;;3.00;99.90;;;;;;5046879;28;20056;-78
2022/12/08 07:25:17;;;;;;;0.60;0.60;;;3.00;99.90;;;;;;5045540;28;20156;-77
2022/12/08 07:27:43;;;;;;;1.50;1.00;;;2.90;99.90;;;;;;5040427;28;20048;-78
2022/12/08 07:30:09;;;;;;;1.45;0.95;;;2.90;99.90;;;;;;5037846;28;20108;-78
2022/12/08 07:32:37;;;;;;;1.35;0.90;;;2.90;99.90;;;;;;5043641;28;20063;-77
2022/12/08 07:35:03;;;;;;;1.05;0.85;;;2.80;99.90;;;;;;5041178;28;20063;-78
2022/12/08 07:37:29;;;;;;;2.40;1.10;;;2.80;99.90;;;;;;5040605;28;20049;-77
2022/12/08 07:39:54;;;;;;;2.25;1.73;;;2.70;99.90;;;;;;5044319;28;20049;-78
2022/12/08 07:42:20;;;;;;;1.50;1.40;;;2.90;99.90;;;;;;5058116;28;20520;-78
2022/12/08 07:44:46;;;;;;;2.58;1.83;;;2.70;99.90;;;;;;5040033;28;20139;-78
2022/12/08 07:47:11;;;;;;;1.40;1.30;;;2.60;99.90;;;;;;5068780;28;20120;-78
2022/12/08 07:49:37;;;;;;;1.83;1.40;;;2.20;99.90;;;;;;5035217;28;20097;-78
2022/12/08 07:52:03;;;;;;;1.83;1.73;;;2.70;99.90;;;;;;5039922;28;20516;-78
2022/12/08 07:54:28;;;;;;;3.22;2.00;;;2.60;99.90;;;;;;5041783;28;20045;-78
2022/12/08 07:56:56;;;;;;;1.40;1.30;;;2.60;99.90;;;;;;5044112;28;20044;-78
2022/12/08 07:59:22;;;;;;;2.35;2.15;;;2.60;99.90;;;;;;5038977;28;20071;-78
2022/12/08 08:01:49;;;;;;;2.70;1.90;;;3.70;99.90;;;;;;5046674;28;20520;-78
2022/12/08 08:04:15;;;;;;;2.28;1.55;;;2.60;99.90;;;;;;5052879;28;20106;-78
2022/12/08 08:06:40;;;;;;;1.85;1.70;;;3.10;99.90;;;;;;5049969;28;20049;-77
2022/12/08 08:09:07;;;;;;;1.58;1.48;;;2.50;99.90;;;;;;5035885;28;20064;-77
2022/12/08 08:11:33;;;;;;;3.05;1.55;;;2.50;99.90;;;;;;5036299;28;20052;-78
2022/12/08 08:13:59;;;;;;;1.70;1.60;;;2.60;99.90;;;;;;5046204;28;21177;-78
2022/12/08 08:16:24;;;;;;;2.75;1.38;;;2.60;99.90;;;;;;5038308;28;20783;-78
2022/12/08 08:18:50;;;;;;;2.47;1.63;;;3.20;99.90;;;;;;5041831;28;20044;-78
2022/12/08 08:21:18;;;;;;;1.48;1.27;;;2.50;99.90;;;;;;5038272;28;20061;-78
2022/12/08 08:23:44;;;;;;;1.42;1.33;;;2.50;99.90;;;;;;5068219;28;20122;-78
2022/12/08 08:26:10;;;;;;;3.00;1.65;;;2.50;99.90;;;;;;5040572;28;20044;-77
2022/12/08 08:28:35;;;;;;;1.77;1.40;;;2.50;99.90;;;;;;5048571;28;20044;-76
2022/12/08 08:31:02;;;;;;;2.40;2.08;;;2.50;99.90;;;;;;5036151;28;20163;-77
2022/12/08 08:33:29;;;;;;;2.03;1.80;;;3.00;99.90;;;;;;5040918;28;20167;-79
2022/12/08 08:35:54;;;;;;;2.83;1.63;;;2.50;99.90;;;;;;5039156;28;20056;-80
2022/12/08 08:38:20;;;;;;;1.30;1.20;;;2.50;99.90;;;;;;5037185;28;20188;-78
2022/12/08 08:40:46;;;;;;;2.33;1.52;;;2.50;99.90;;;;;;5043987;28;20379;-77
2022/12/08 08:43:27;;;;;;;1.60;1.42;;;2.70;99.90;;;;;;5043811;28;20052;-79
2022/12/08 08:45:57;;;;;;;2.70;1.55;;;2.80;99.90;;;;;;5040564;28;20067;-80
2022/12/08 08:48:24;;;;;;;6.07;2.45;;;3.30;99.90;;;;;;5046601;28;20076;-79
2022/12/08 08:50:50;;;;;;;3.17;1.83;;;2.50;99.90;;;;;;5046390;28;20515;-80
2022/12/08 08:53:15;;;;;;;2.50;1.63;;;2.50;99.90;;;;;;5046567;28;20049;-79
2022/12/08 08:55:41;;;;;;;3.35;2.03;;;2.40;99.90;;;;;;5046270;28;20048;-78
2022/12/08 08:58:07;;;;;;;2.10;1.60;;;3.30;99.90;;;;;;5043605;28;20128;-78
2022/12/08 09:00:32;;;;;;;2.58;1.50;;;4.10;99.90;;;;;;5043885;28;20551;-79
2022/12/08 09:02:58;;;;;;;2.08;1.33;;;3.00;99.90;;;;;;5038031;28;20095;-80
2022/12/08 09:05:24;;;;;;;3.70;1.90;;;3.40;99.90;;;;;;5041590;28;20101;-79
2022/12/08 09:07:50;;;;;;;3.28;1.70;;;2.90;99.90;;;;;;5041861;28;20061;-80
2022/12/08 09:10:15;;;;;;;1.50;1.40;;;3.90;99.90;;;;;;5044719;28;20129;-78
2022/12/08 09:12:41;;;;;;;3.92;1.42;;;3.10;99.90;;;;;;5042000;28;20044;-80
2022/12/08 09:15:07;;;;;;;2.28;1.52;;;3.90;99.90;;;;;;5040972;28;20131;-80
2022/12/08 09:17:33;;;;;;;3.15;2.10;;;3.10;99.90;;;;;;5043410;28;20049;-79
2022/12/08 09:19:59;;;;;;;7.63;3.03;;;3.10;99.90;;;;;;5044925;28;20044;-80
2022/12/08 09:22:25;;;;;;;5.55;3.70;;;3.80;99.90;;;;;;5042328;28;20185;-80
2022/12/08 09:24:51;;;;;;;5.55;3.92;;;3.40;99.90;;;;;;5038995;28;20131;-79
2022/12/08 09:27:17;;;;;;;5.78;3.97;;;4.20;99.90;;;;;;5046916;28;20048;-80
2022/12/08 09:29:43;;;;;;;6.57;2.65;;;3.70;99.90;;;;;;5039488;28;20161;-81
2022/12/08 09:32:09;;;;;;;5.82;3.10;;;4.30;99.90;;;;;;5047129;28;20130;-80
2022/12/08 09:34:35;;;;;;;6.55;2.72;;;3.60;99.90;;;;;;5039564;28;20053;-81
2022/12/08 09:37:00;;;;;;;6.55;2.25;;;4.50;99.90;;;;;;5052886;28;20056;-81
2022/12/08 09:39:26;;;;;;;4.50;1.75;;;4.10;99.90;;;;;;5049760;28;20056;-80
2022/12/08 09:42:03;;;;;;;2.28;1.80;;;3.80;99.90;;;;;;5045648;28;20469;-79
2022/12/08 09:44:47;;;;;;;2.08;1.83;;;3.90;99.90;;;;;;5049511;28;20063;-81
2022/12/08 09:47:34;;;;;;;2.45;2.03;;;4.00;99.90;;;;;;5045234;28;20548;-79
2022/12/08 09:50:16;;;;;;;2.58;1.65;;;4.20;99.90;;;;;;5060242;28;20164;-79
2022/12/08 09:52:57;;;;;;;3.03;2.03;;;4.20;99.90;;;;;;5047702;28;20109;-80
2022/12/08 09:55:44;;;;;;;5.43;2.28;;;4.60;99.90;;;;;;5042595;28;20063;-80
2022/12/08 09:58:28;;;;;;;4.80;2.38;;;4.20;99.90;;;;;;5044656;28;20584;-80
2022/12/08 10:00:54;;;;;;;5.63;2.72;;;5.10;99.90;;;;;;5047903;28;20725;-80
2022/12/08 10:03:24;;;;;;;5.25;3.25;;;4.20;99.90;;;;;;5047622;28;20095;-80
2022/12/08 10:06:15;;;;;;;3.03;2.03;;;4.20;99.90;;;;;;5046978;28;20592;-80
2022/12/08 10:09:00;;;;;;;3.42;1.90;;;4.30;99.90;;;;;;5038938;28;20126;-80
2022/12/08 10:11:50;;;;;;;2.72;1.90;;;4.20;99.90;;;;;;5042263;28;20049;-79
2022/12/08 10:14:45;;;;;;;5.25;1.77;;;4.20;99.90;;;;;;5043738;28;20051;-80
2022/12/08 10:17:30;;;;;;;6.20;2.20;;;4.20;99.90;;;;;;5040536;28;20943;-80
2022/12/08 10:20:09;;;;;;;2.40;1.73;;;4.30;99.90;;;;;;5046377;28;20049;-81
2022/12/08 10:22:35;;;;;;;2.78;1.75;;;4.40;99.90;;;;;;5042068;28;20045;-80
2022/12/08 10:25:28;;;;;;;2.53;2.33;;;4.50;99.90;;;;;;5044856;28;20582;-80
2022/12/08 10:27:59;;;;;;;4.45;2.30;;;4.50;99.90;;;;;;5047190;28;20080;-80
2022/12/08 10:30:25;;;;;;;4.15;1.75;;;4.50;99.90;;;;;;5054043;28;20049;-78
2022/12/08 10:32:52;;;;;;;4.38;1.90;;;4.50;99.90;;;;;;5053127;28;20057;-81
2022/12/08 10:35:20;;;;;;;2.15;1.90;;;4.60;99.90;;;;;;5047358;28;20637;-80
2022/12/08 10:37:57;;;;;;;3.58;1.67;;;4.50;99.90;;;;;;5048684;28;20041;-80
2022/12/08 10:40:27;;;;;;;2.67;2.05;;;4.50;99.90;;;;;;5045175;28;20048;-81
2022/12/08 10:42:56;;;;;;;5.28;2.33;;;4.60;99.90;;;;;;5052103;28;20421;-80
2022/12/08 10:45:26;;;;;;;3.30;1.30;;;4.60;99.90;;;;;;5043964;28;20040;-79
2022/12/08 10:47:57;;;;;;;3.78;1.83;;;4.70;99.90;;;;;;5046090;28;20483;-79
2022/12/08 10:50:30;;;;;;;6.43;1.52;;;4.80;99.90;;;;;;5050806;28;20060;-79
2022/12/08 10:53:06;;;;;;;1.75;1.38;;;4.80;99.90;;;;;;5040416;28;20083;-80
2022/12/08 10:55:43;;;;;;;4.15;1.70;;;5.00;99.90;;;;;;5039340;28;20130;-79
2022/12/08 10:58:39;;;;;;;4.18;1.63;;;5.20;99.90;;;;;;5044233;28;20048;-79
2022/12/08 11:01:08;;;;;;;3.03;1.50;;;5.40;99.90;;;;;;5049292;28;20876;-79
2022/12/08 11:03:57;;;;;;;3.55;1.42;;;5.60;99.90;;;;;;5050976;28;20055;-80
2022/12/08 11:06:28;;;;;;;2.67;1.55;;;5.70;99.90;;;;;;5043943;28;20271;-79
2022/12/08 11:08:56;;;;;;;3.03;1.50;;;5.80;99.90;;;;;;5052885;28;20091;-79
2022/12/08 11:11:55;;;;;;;4.18;1.73;;;5.80;99.90;;;;;;5048537;28;20044;-79
2022/12/08 11:14:30;;;;;;;1.40;1.20;;;5.80;99.90;;;;;;5045902;28;20059;-80
2022/12/08 11:17:12;;;;;;;3.15;1.42;;;5.90;99.90;;;;;;5040461;28;20572;-80
2022/12/08 11:20:05;;;;;;;2.78;1.50;;;5.90;99.90;;;;;;5040893;28;20106;-80
2022/12/08 11:22:31;;;;;;;5.75;1.92;;;5.70;99.90;;;;;;5042284;28;20499;-80
2022/12/08 11:25:06;;;;;;;2.85;1.50;;;5.70;99.90;;;;;;5053117;28;20049;-80
2022/12/08 11:27:35;;;;;;;2.03;1.67;;;5.70;99.90;;;;;;5042310;28;20808;-79
2022/12/08 11:30:05;;;;;;;3.25;1.80;;;5.70;99.90;;;;;;5041465;28;20365;-79
2022/12/08 11:32:31;;;;;;;2.40;1.52;;;5.60;99.90;;;;;;5036341;28;20052;-79
2022/12/08 11:35:01;;;;;;;2.30;1.55;;;5.60;99.90;;;;;;5042487;28;20057;-79
2022/12/08 11:37:41;;;;;;;2.78;1.85;;;5.70;99.90;;;;;;5040364;28;20047;-78
2022/12/08 11:40:20;;;;;;;1.65;1.35;;;5.80;99.90;;;;;;5039455;28;20684;-82
2022/12/08 11:43:14;;;;;;;4.63;1.77;;;5.90;99.90;;;;;;5037990;28;20530;-77
2022/12/08 11:45:40;;;;;;;2.53;1.23;;;5.90;99.90;;;;;;5038004;28;20147;-80
2022/12/08 11:48:16;;;;;;;1.55;1.45;;;5.90;99.90;;;;;;5045687;28;20044;-80
2022/12/08 11:50:56;;;;;;;5.38;2.05;;;6.00;99.90;;;;;;5037122;28;20147;-79
2022/12/08 11:53:25;;;;;;;2.22;1.40;;;6.00;99.90;;;;;;5041577;28;20044;-78
2022/12/08 11:55:57;;;;;;;4.43;1.75;;;5.90;99.90;;;;;;5040663;28;20044;-79
2022/12/08 11:58:36;;;;;;;1.77;1.30;;;5.80;99.90;;;;;;5040722;28;20049;-80
2022/12/08 12:01:01;;;;;;;4.70;1.60;;;5.70;99.90;;;;;;5042715;28;20071;-79
2022/12/08 12:03:36;;;;;;;4.22;1.65;;;5.70;99.90;;;;;;5044882;28;20482;-78
2022/12/08 12:06:27;;;;;;;3.67;1.70;;;5.60;99.90;;;;;;5045435;28;20044;-77
2022/12/08 12:09:02;;;;;;;2.85;1.40;;;5.70;99.90;;;;;;5040495;28;20099;-78
2022/12/08 12:15:10;;;;;;;2.08;1.35;;;5.60;99.90;;;;;;5040257;28;20059;-81
2022/12/08 12:18:02;;;;;;;4.43;1.60;;;5.60;99.90;;;;;;5037887;28;20052;-80
2022/12/08 12:20:36;;;;;;;3.38;1.38;;;5.70;99.90;;;;;;5038163;28;20118;-79
2022/12/08 12:23:27;;;;;;;9.77;1.88;;;5.70;99.90;;;;;;5040236;28;20051;-79
2022/12/08 12:25:57;;;;;;;3.97;2.28;;;5.80;99.90;;;;;;5045734;28;20048;-79
2022/12/08 12:28:30;;;;;;;5.15;1.48;;;5.80;99.90;;;;;;5041122;28;20178;-80
2022/12/08 12:31:07;;;;;;;2.75;1.77;;;5.80;99.90;;;;;;5037639;28;20052;-80
2022/12/08 12:33:34;;;;;;;3.75;1.40;;;5.90;99.90;;;;;;5059493;28;20342;-79
2022/12/08 12:36:05;;;;;;;4.63;1.30;;;6.60;99.90;;;;;;5048340;28;20180;-81
2022/12/08 12:39:02;;;;;;;4.50;1.25;;;5.90;99.90;;;;;;5038027;28;20845;-78
2022/12/08 12:41:36;;;;;;;8.43;1.80;;;6.40;99.90;;;;;;5038173;28;20044;-79
2022/12/08 12:44:11;;;;;;;1.50;1.35;;;5.90;99.90;;;;;;5038665;28;20136;-79
2022/12/08 12:46:49;;;;;;;3.17;1.50;;;6.00;99.90;;;;;;5039340;28;20075;-80
2022/12/08 12:49:39;;;;;;;3.17;1.38;;;5.70;99.90;;;;;;5040773;28;20060;-82
2022/12/08 12:52:14;;;;;;;3.78;1.50;;;5.60;99.90;;;;;;5039879;28;20050;-80
2022/12/08 12:54:49;;;;;;;1.90;1.42;;;5.50;99.90;;;;;;5071932;28;20551;-80
2022/12/08 12:57:17;;;;;;;2.47;1.33;;;5.40;99.90;;;;;;5035066;28;20123;-80
2022/12/08 12:59:52;;;;;;;1.40;1.02;;;5.40;99.90;;;;;;5039355;28;20045;-80
2022/12/08 13:02:24;;;;;;;1.58;1.10;;;5.40;99.90;;;;;;5043403;28;20223;-81
2022/12/08 13:05:08;;;;;;;2.50;1.67;;;5.30;99.90;;;;;;5037412;28;20056;-80
2022/12/08 13:07:53;;;;;;;;;;;5.20;99.90;;;;;;5035687;28;20196;-80
2022/12/08 13:10:24;;;;;;;6.20;2.45;;;5.10;99.90;;;;;;5049014;28;20212;-83
2022/12/08 13:13:01;;;;;;;3.58;2.00;;;5.10;99.90;;;;;;5044376;28;20045;-82
2022/12/08 13:15:39;;;;;;;5.32;1.90;;;5.10;99.90;;;;;;5046540;28;20048;-81
2022/12/08 13:18:23;;;;;;;5.22;1.80;;;5.10;99.90;;;;;;5049660;28;20118;-82
2022/12/08 13:20:53;;;;;;;5.05;2.28;;;5.10;99.90;;;;;;5042812;28;20242;-82
2022/12/08 13:23:37;;;;;;;3.88;2.10;;;5.10;99.90;;;;;;5048384;28;20073;-82